Time;durP1;ratioP1;P1;durP2;ratioP2;P2;SDS_P1;SDS_P2;PMS_P1;PMS_P2;Temp;Humidity;BMP_temperature;BMP_pressure;BME280_temperature;BME280_humidity;BME280_pressure;Samples;Min_cycle;Max_cycle;Signal;HPM_P1;HPM_P2
2023/08/30 00:00:49;;;;;;;36.30;26.42;;;16.60;99.40;;;;;;4957981;28;20031;-82
2023/08/30 00:03:15;;;;;;;35.13;24.60;;;16.50;99.50;;;;;;4977713;28;20109;-85
2023/08/30 00:05:41;;;;;;;29.83;22.38;;;16.50;99.50;;;;;;4996047;28;20026;-83
2023/08/30 00:08:08;;;;;;;27.43;22.50;;;16.50;99.50;;;;;;4968299;28;20018;-87
2023/08/30 00:10:34;;;;;;;26.67;22.20;;;16.40;99.40;;;;;;4983059;28;20035;-84
2023/08/30 00:13:00;;;;;;;26.33;21.52;;;16.40;99.40;;;;;;4983600;28;20030;-84
2023/08/30 00:15:26;;;;;;;25.33;20.27;;;16.40;99.40;;;;;;4989110;28;20023;-84
2023/08/30 00:17:52;;;;;;;25.17;19.48;;;16.40;99.50;;;;;;4978760;28;20050;-83
2023/08/30 00:20:21;;;;;;;21.73;18.17;;;16.40;99.50;;;;;;4977432;28;20046;-84
2023/08/30 00:22:50;;;;;;;21.25;17.75;;;16.40;99.50;;;;;;4974242;28;20027;-85
2023/08/30 00:25:16;;;;;;;22.55;17.27;;;16.40;99.50;;;;;;4974749;28;20027;-84
2023/08/30 00:27:42;;;;;;;22.17;17.63;;;16.40;99.50;;;;;;4968118;28;20031;-83
2023/08/30 00:30:09;;;;;;;24.83;17.52;;;16.40;99.50;;;;;;4974070;28;20023;-84
2023/08/30 00:32:35;;;;;;;21.67;17.75;;;16.40;99.40;;;;;;4957121;28;20026;-83
2023/08/30 00:35:01;;;;;;;21.95;17.60;;;16.30;99.40;;;;;;4974377;28;20039;-82
2023/08/30 00:37:27;;;;;;;20.42;16.98;;;16.30;99.50;;;;;;4963452;28;20032;-86
2023/08/30 00:39:52;;;;;;;24.48;17.75;;;16.20;99.50;;;;;;4971010;28;20026;-84
2023/08/30 00:42:18;;;;;;;22.58;17.00;;;16.10;99.50;;;;;;4973652;28;20103;-85
2023/08/30 00:44:44;;;;;;;23.10;16.95;;;16.10;99.60;;;;;;4955875;28;20465;-85
2023/08/30 00:47:10;;;;;;;20.23;16.15;;;16.00;99.70;;;;;;4983296;28;20026;-84
2023/08/30 00:49:36;;;;;;;20.27;16.08;;;16.00;99.80;;;;;;4973146;28;20085;-83
2023/08/30 00:52:06;;;;;;;21.17;16.38;;;16.00;99.80;;;;;;4974101;28;20098;-84
2023/08/30 00:54:32;;;;;;;20.90;15.45;;;16.00;99.80;;;;;;4956495;28;20050;-84
2023/08/30 00:57:00;;;;;;;21.95;16.10;;;16.00;99.80;;;;;;4973634;28;20077;-85
2023/08/30 00:59:25;;;;;;;;;;;16.10;99.80;;;;;;4975067;28;20038;-84
2023/08/30 01:01:53;;;;;;;17.10;13.80;;;16.10;99.60;;;;;;4977014;28;20287;-84
2023/08/30 01:04:19;;;;;;;18.25;15.50;;;16.10;99.60;;;;;;4975635;28;20026;-83
2023/08/30 01:06:45;;;;;;;17.77;15.65;;;16.10;99.50;;;;;;4960763;28;20117;-85
2023/08/30 01:09:12;;;;;;;21.98;15.55;;;16.10;99.40;;;;;;4978854;28;20055;-84
2023/08/30 01:11:51;;;;;;;20.57;15.30;;;16.10;99.40;;;;;;4985721;28;20046;-83
2023/08/30 01:14:29;;;;;;;17.60;14.88;;;16.10;99.20;;;;;;4985900;28;20023;-84
2023/08/30 01:16:57;;;;;;;18.67;15.23;;;16.10;99.20;;;;;;4976379;28;20019;-83
2023/08/30 01:19:47;;;;;;;18.25;15.25;;;16.10;99.20;;;;;;4974366;28;20106;-84
2023/08/30 01:22:17;;;;;;;20.50;15.02;;;16.10;99.10;;;;;;4978555;28;20047;-83
2023/08/30 01:24:58;;;;;;;17.42;13.45;;;16.10;99.00;;;;;;4961996;28;20082;-85
2023/08/30 01:27:25;;;;;;;16.58;13.13;;;16.10;98.90;;;;;;4959658;28;20062;-85
2023/08/30 01:29:54;;;;;;;16.13;13.48;;;16.10;98.90;;;;;;4986520;28;20079;-86
2023/08/30 01:32:22;;;;;;;17.42;14.38;;;16.10;98.80;;;;;;4980115;28;20062;-84
2023/08/30 01:34:50;;;;;;;17.05;14.40;;;16.10;98.80;;;;;;4981114;28;20031;-84
2023/08/30 01:37:16;;;;;;;16.42;14.65;;;16.20;98.70;;;;;;4974068;28;20102;-84
2023/08/30 01:39:43;;;;;;;17.73;13.15;;;16.20;98.60;;;;;;4971855;28;20333;-84
2023/08/30 01:42:10;;;;;;;14.48;12.27;;;16.20;98.70;;;;;;4973073;28;20424;-85
2023/08/30 01:44:37;;;;;;;15.77;14.05;;;16.20;98.60;;;;;;4955264;28;20023;-83
2023/08/30 01:47:04;;;;;;;15.57;13.50;;;16.20;98.40;;;;;;4973583;28;20027;-84
2023/08/30 01:49:32;;;;;;;14.38;12.77;;;16.20;98.40;;;;;;4974334;28;20041;-84
2023/08/30 01:51:58;;;;;;;17.50;13.52;;;16.20;98.30;;;;;;4981266;28;20381;-84
2023/08/30 01:54:26;;;;;;;14.20;12.65;;;16.20;98.30;;;;;;4978311;28;20082;-85
2023/08/30 01:56:52;;;;;;;17.45;12.82;;;16.20;98.20;;;;;;4955213;28;20027;-84
2023/08/30 01:59:18;;;;;;;15.07;13.48;;;16.20;98.10;;;;;;4959763;28;20029;-83
2023/08/30 02:01:44;;;;;;;17.40;13.35;;;16.20;98.10;;;;;;4977209;28;20034;-84
2023/08/30 02:04:10;;;;;;;16.35;14.25;;;16.10;98.10;;;;;;4974919;28;20011;-83
2023/08/30 02:06:50;;;;;;;15.82;14.23;;;16.20;98.20;;;;;;4988591;28;20375;-84
2023/08/30 02:09:24;;;;;;;17.65;15.77;;;16.10;98.20;;;;;;4968859;28;20015;-84
2023/08/30 02:11:52;;;;;;;19.13;16.23;;;16.10;98.40;;;;;;4968257;28;20084;-83
2023/08/30 02:14:19;;;;;;;18.35;16.23;;;16.10;98.50;;;;;;4958223;28;20517;-83
2023/08/30 02:16:47;;;;;;;19.20;16.00;;;16.10;98.50;;;;;;4976397;28;20054;-85
2023/08/30 02:19:16;;;;;;;17.27;15.43;;;16.10;98.70;;;;;;4976079;28;20035;-85
2023/08/30 02:21:43;;;;;;;18.55;15.88;;;16.10;98.50;;;;;;4976027;28;20496;-83
2023/08/30 02:24:09;;;;;;;22.25;16.20;;;16.10;98.50;;;;;;4958298;28;20042;-85
2023/08/30 02:26:35;;;;;;;20.58;18.23;;;16.10;98.50;;;;;;4975302;28;20023;-84
2023/08/30 02:29:00;;;;;;;19.52;17.42;;;16.10;98.60;;;;;;4976182;28;20023;-84
2023/08/30 02:31:26;;;;;;;20.13;17.08;;;16.00;98.50;;;;;;4977565;28;20027;-84
2023/08/30 02:33:52;;;;;;;20.35;16.60;;;16.10;98.60;;;;;;4987006;28;20468;-83
2023/08/30 02:36:18;;;;;;;19.42;15.00;;;16.00;98.60;;;;;;4968479;28;20015;-84
2023/08/30 02:38:43;;;;;;;15.73;14.05;;;16.00;98.60;;;;;;4982654;28;20027;-83
2023/08/30 02:41:10;;;;;;;16.20;12.98;;;16.10;98.60;;;;;;4966883;28;20019;-84
2023/08/30 02:43:35;;;;;;;14.52;12.88;;;16.10;98.50;;;;;;4958088;28;20027;-84
2023/08/30 02:46:04;;;;;;;17.02;13.80;;;16.00;98.50;;;;;;4975324;28;20037;-83
2023/08/30 02:48:30;;;;;;;16.80;13.45;;;16.00;98.80;;;;;;4967214;28;20018;-84
2023/08/30 02:50:55;;;;;;;15.98;12.85;;;16.00;98.50;;;;;;4975512;28;20106;-85
2023/08/30 02:53:21;;;;;;;18.35;14.45;;;16.00;98.60;;;;;;4979347;28;20051;-86
2023/08/30 02:55:48;;;;;;;16.52;13.43;;;16.00;98.50;;;;;;4977228;28;20029;-84
2023/08/30 02:58:14;;;;;;;13.68;11.73;;;16.00;98.50;;;;;;4982941;28;20011;-85
2023/08/30 03:00:39;;;;;;;15.00;10.98;;;15.90;98.50;;;;;;4976153;28;20035;-84
2023/08/30 03:03:05;;;;;;;13.23;11.82;;;15.90;98.50;;;;;;4976139;28;20081;-84
2023/08/30 03:05:31;;;;;;;13.52;11.38;;;15.90;98.50;;;;;;4994223;28;20132;-86
2023/08/30 03:07:57;;;;;;;12.95;11.13;;;15.90;98.50;;;;;;4983559;28;20026;-84
2023/08/30 03:10:23;;;;;;;13.80;11.13;;;15.90;98.50;;;;;;4987697;28;20025;-83
2023/08/30 03:12:48;;;;;;;13.00;10.77;;;15.90;98.40;;;;;;4987282;28;20029;-85
2023/08/30 03:15:14;;;;;;;13.38;11.10;;;15.90;98.50;;;;;;4975940;28;20039;-84
2023/08/30 03:17:40;;;;;;;13.55;10.82;;;15.90;98.40;;;;;;4975899;28;20023;-83
2023/08/30 03:20:07;;;;;;;16.10;12.68;;;15.90;98.50;;;;;;4976829;28;20026;-86
2023/08/30 03:22:32;;;;;;;13.07;11.43;;;15.90;98.50;;;;;;4976739;28;20057;-85
2023/08/30 03:24:58;;;;;;;13.13;11.07;;;15.90;98.50;;;;;;4977155;28;20534;-84
2023/08/30 03:27:24;;;;;;;15.63;11.63;;;16.00;98.50;;;;;;4976363;28;20504;-84
2023/08/30 03:29:50;;;;;;;14.43;11.40;;;16.10;98.30;;;;;;4958078;28;20491;-85
2023/08/30 03:32:17;;;;;;;14.35;10.98;;;16.10;98.10;;;;;;4977644;28;20022;-83
2023/08/30 03:34:47;;;;;;;12.60;9.07;;;16.10;97.80;;;;;;4981031;28;20058;-83
2023/08/30 03:37:16;;;;;;;12.70;10.18;;;16.10;97.60;;;;;;4961480;28;20026;-83
2023/08/30 03:39:42;;;;;;;12.57;9.40;;;16.00;97.70;;;;;;4965610;28;20034;-84
2023/08/30 03:42:08;;;;;;;12.73;10.60;;;16.00;97.70;;;;;;4975670;28;20524;-85
2023/08/30 03:44:34;;;;;;;14.02;10.38;;;16.00;97.50;;;;;;4981305;28;20073;-83
2023/08/30 03:47:00;;;;;;;12.48;9.63;;;16.00;97.50;;;;;;4975889;28;20030;-84
2023/08/30 03:49:26;;;;;;;13.63;10.70;;;16.10;97.60;;;;;;4971388;28;20027;-83
2023/08/30 03:51:51;;;;;;;15.77;9.77;;;16.10;97.40;;;;;;4977250;28;20023;-83
2023/08/30 03:54:17;;;;;;;11.63;9.30;;;16.10;97.20;;;;;;4983586;28;20075;-83
2023/08/30 03:56:44;;;;;;;13.48;8.75;;;16.10;96.90;;;;;;4998241;28;20019;-83
2023/08/30 03:59:10;;;;;;;12.65;9.68;;;16.10;96.70;;;;;;4958250;28;20096;-82
2023/08/30 04:01:36;;;;;;;12.80;7.90;;;16.10;96.70;;;;;;4954665;28;20030;-84
2023/08/30 04:04:02;;;;;;;9.52;8.32;;;16.20;96.60;;;;;;4975274;28;20027;-83
2023/08/30 04:06:28;;;;;;;15.90;9.13;;;16.20;96.20;;;;;;4970937;28;20033;-82
2023/08/30 04:08:53;;;;;;;11.75;9.07;;;16.10;96.10;;;;;;4980728;28;20022;-85
2023/08/30 04:11:19;;;;;;;20.40;8.25;;;16.20;96.10;;;;;;4976889;28;20046;-83
2023/08/30 04:13:45;;;;;;;12.20;8.20;;;16.30;96.00;;;;;;4976103;28;20046;-82
2023/08/30 04:16:11;;;;;;;10.63;8.57;;;16.30;95.80;;;;;;4981935;28;20644;-86
2023/08/30 04:18:37;;;;;;;11.80;9.18;;;16.40;95.70;;;;;;4975140;28;20023;-83
2023/08/30 04:21:06;;;;;;;10.32;7.97;;;16.50;95.50;;;;;;4977522;28;20064;-84
2023/08/30 04:23:31;;;;;;;13.82;9.50;;;16.50;95.30;;;;;;4976873;28;20015;-83
2023/08/30 04:25:57;;;;;;;10.40;7.85;;;16.60;95.20;;;;;;4979035;28;20042;-83
2023/08/30 04:28:23;;;;;;;9.88;7.78;;;16.60;95.00;;;;;;4976431;28;20042;-83
2023/08/30 04:30:49;;;;;;;9.82;8.65;;;16.70;94.70;;;;;;4971470;28;20030;-82
2023/08/30 04:33:15;;;;;;;10.73;8.45;;;16.70;94.70;;;;;;4960708;28;20022;-85
2023/08/30 04:35:41;;;;;;;13.45;9.57;;;16.70;94.60;;;;;;4986572;28;20399;-84
2023/08/30 04:38:06;;;;;;;10.27;8.88;;;16.70;94.40;;;;;;4978596;28;20026;-82
2023/08/30 04:40:32;;;;;;;8.93;7.75;;;16.70;94.60;;;;;;4985207;28;20026;-84
2023/08/30 04:42:59;;;;;;;11.57;9.45;;;16.70;94.60;;;;;;5001796;28;20023;-82
2023/08/30 04:45:25;;;;;;;10.32;8.50;;;16.80;94.50;;;;;;4964250;28;20504;-86
2023/08/30 04:47:50;;;;;;;11.27;8.07;;;16.70;94.20;;;;;;4975262;28;20042;-83
2023/08/30 04:50:17;;;;;;;10.82;7.18;;;16.70;94.20;;;;;;4951548;28;20063;-82
2023/08/30 04:52:43;;;;;;;10.95;8.88;;;16.60;94.30;;;;;;4976205;28;20134;-84
2023/08/30 04:55:09;;;;;;;10.30;8.50;;;16.60;94.50;;;;;;4959090;28;20037;-82
2023/08/30 04:57:36;;;;;;;16.27;8.82;;;16.60;94.60;;;;;;4979605;28;20023;-82
2023/08/30 05:00:04;;;;;;;11.10;8.45;;;16.70;94.50;;;;;;4979079;28;20146;-84
2023/08/30 05:02:31;;;;;;;12.68;8.13;;;16.70;94.20;;;;;;4962241;28;20030;-86
2023/08/30 05:04:56;;;;;;;10.45;8.57;;;16.80;94.10;;;;;;4975671;28;20106;-85
2023/08/30 05:07:22;;;;;;;15.25;8.65;;;16.80;94.20;;;;;;4974294;28;20023;-85
2023/08/30 05:09:48;;;;;;;12.13;9.23;;;16.90;94.10;;;;;;4974843;28;20058;-85
2023/08/30 05:12:14;;;;;;;12.85;8.73;;;17.10;94.10;;;;;;4974583;28;20035;-85
2023/08/30 05:14:40;;;;;;;16.15;9.18;;;17.10;93.60;;;;;;4987370;28;20188;-84
2023/08/30 05:17:10;;;;;;;10.02;8.10;;;17.20;93.40;;;;;;4982413;28;20022;-86
2023/08/30 05:19:36;;;;;;;13.35;9.45;;;17.20;93.40;;;;;;4985685;28;20030;-85
2023/08/30 05:22:02;;;;;;;12.50;9.20;;;17.30;93.00;;;;;;4974971;28;20122;-84
2023/08/30 05:24:28;;;;;;;9.43;8.35;;;17.40;92.90;;;;;;4976378;28;20068;-83
2023/08/30 05:26:54;;;;;;;10.20;8.32;;;17.40;92.80;;;;;;4982683;28;20102;-83
2023/08/30 05:29:20;;;;;;;9.95;7.88;;;17.70;92.80;;;;;;4980375;28;20074;-84
2023/08/30 05:31:45;;;;;;;11.82;8.07;;;18.20;91.90;;;;;;4974670;28;20031;-84
2023/08/30 05:34:11;;;;;;;18.02;10.25;;;18.90;90.80;;;;;;4959894;28;20054;-85
2023/08/30 05:36:37;;;;;;;9.50;7.55;;;20.00;89.90;;;;;;4977419;28;20445;-86
2023/08/30 05:39:03;;;;;;;12.02;7.90;;;20.50;85.60;;;;;;4971956;28;20026;-87
2023/08/30 05:41:29;;;;;;;11.60;8.05;;;20.30;85.00;;;;;;4989550;28;20030;-85
2023/08/30 05:43:56;;;;;;;14.55;8.32;;;20.00;84.90;;;;;;4989879;28;20026;-85
2023/08/30 05:46:22;;;;;;;27.10;10.40;;;19.70;85.60;;;;;;4990003;28;20054;-86
2023/08/30 05:48:47;;;;;;;10.63;8.65;;;19.50;86.70;;;;;;4984295;28;20031;-88
2023/08/30 05:51:13;;;;;;;10.43;9.20;;;19.40;86.90;;;;;;4975599;28;20038;-84
2023/08/30 05:53:39;;;;;;;8.60;7.70;;;19.20;87.50;;;;;;4983124;28;20125;-85
2023/08/30 05:56:05;;;;;;;10.77;7.63;;;18.90;87.50;;;;;;4975912;28;20027;-88
2023/08/30 05:58:31;;;;;;;22.90;9.68;;;18.70;88.40;;;;;;4991152;28;20058;-82
2023/08/30 06:01:00;;;;;;;23.50;10.00;;;18.70;89.10;;;;;;4979890;28;20047;-84
2023/08/30 06:03:26;;;;;;;10.38;7.97;;;18.80;88.70;;;;;;4982015;28;20058;-84
2023/08/30 06:05:52;;;;;;;11.60;8.40;;;18.80;88.40;;;;;;4978313;28;20027;-87
2023/08/30 06:08:18;;;;;;;10.87;7.63;;;19.00;88.20;;;;;;4977863;28;20153;-86
2023/08/30 06:10:44;;;;;;;15.18;8.23;;;19.30;87.50;;;;;;4959921;28;20027;-83
2023/08/30 06:13:10;;;;;;;15.30;10.15;;;19.60;86.80;;;;;;4977141;28;20023;-82
2023/08/30 06:15:37;;;;;;;7.15;6.20;;;20.00;85.50;;;;;;4978355;28;20397;-82
2023/08/30 06:18:04;;;;;;;9.10;5.75;;;20.30;83.10;;;;;;4981162;28;20038;-82
2023/08/30 06:20:29;;;;;;;8.02;6.72;;;20.60;82.00;;;;;;4976203;28;20030;-81
2023/08/30 06:22:58;;;;;;;9.63;6.05;;;20.20;82.00;;;;;;4976924;28;20014;-82
2023/08/30 06:25:27;;;;;;;9.07;5.70;;;19.80;83.40;;;;;;4976376;28;20019;-84
2023/08/30 06:27:58;;;;;;;8.07;5.47;;;19.60;84.40;;;;;;4977545;28;20502;-83
2023/08/30 06:30:25;;;;;;;9.07;5.97;;;19.50;84.10;;;;;;4976979;28;20030;-83
2023/08/30 06:32:51;;;;;;;13.27;6.53;;;19.30;84.30;;;;;;4965311;28;20089;-83
2023/08/30 06:35:17;;;;;;;8.55;6.15;;;19.40;85.20;;;;;;4975280;28;20485;-83
2023/08/30 06:37:43;;;;;;;9.32;7.00;;;19.80;84.00;;;;;;4974736;28;20029;-84
2023/08/30 06:40:09;;;;;;;8.90;6.53;;;20.00;83.10;;;;;;4975802;28;20046;-82
2023/08/30 06:42:35;;;;;;;12.50;6.88;;;20.20;82.50;;;;;;4975497;28;20106;-83
2023/08/30 06:45:02;;;;;;;10.80;6.55;;;20.30;81.70;;;;;;4974975;28;20117;-82
2023/08/30 06:47:28;;;;;;;7.97;5.75;;;20.30;81.90;;;;;;4976051;28;20031;-83
2023/08/30 06:49:54;;;;;;;10.30;5.88;;;20.40;81.30;;;;;;4975395;28;20023;-84
2023/08/30 06:52:20;;;;;;;9.55;7.10;;;20.50;81.00;;;;;;4975436;28;20047;-83
2023/08/30 06:54:45;;;;;;;8.60;5.72;;;20.40;80.40;;;;;;4975636;28;20177;-83
2023/08/30 06:57:11;;;;;;;8.75;5.28;;;20.30;80.60;;;;;;4976964;28;20496;-84
2023/08/30 06:59:37;;;;;;;8.77;6.20;;;20.10;81.00;;;;;;4975912;28;20059;-83
2023/08/30 07:02:03;;;;;;;8.73;6.13;;;19.80;81.70;;;;;;4975789;28;20029;-82
2023/08/30 07:04:29;;;;;;;6.13;5.50;;;19.60;82.20;;;;;;4970303;28;20346;-82
2023/08/30 07:06:55;;;;;;;6.57;4.90;;;19.50;82.60;;;;;;4958262;28;20030;-83
2023/08/30 07:09:23;;;;;;;8.10;5.47;;;19.40;82.90;;;;;;4975203;28;20429;-83
2023/08/30 07:11:49;;;;;;;6.15;4.30;;;19.20;83.90;;;;;;4975338;28;20121;-82
2023/08/30 07:14:15;;;;;;;6.20;5.22;;;19.40;83.80;;;;;;4975229;28;20062;-83
2023/08/30 07:16:41;;;;;;;42.58;10.25;;;19.70;82.60;;;;;;4975494;28;20018;-84
2023/08/30 07:19:07;;;;;;;7.22;5.45;;;19.80;82.10;;;;;;4957870;28;20078;-81
2023/08/30 07:21:35;;;;;;;6.28;4.88;;;20.00;81.20;;;;;;4977476;28;20392;-83
2023/08/30 07:24:01;;;;;;;8.48;5.20;;;20.10;81.40;;;;;;4974937;28;20473;-84
2023/08/30 07:26:27;;;;;;;8.60;6.82;;;20.10;81.10;;;;;;4975192;28;20031;-82
2023/08/30 07:28:53;;;;;;;7.05;5.55;;;20.10;80.80;;;;;;4975691;28;20140;-84
2023/08/30 07:31:19;;;;;;;8.43;6.07;;;20.30;80.50;;;;;;4979662;28;20022;-82
2023/08/30 07:33:45;;;;;;;6.65;5.85;;;20.40;79.20;;;;;;4971740;28;20039;-82
2023/08/30 07:36:12;;;;;;;6.53;5.57;;;20.20;79.40;;;;;;4981770;28;20031;-82
2023/08/30 07:38:38;;;;;;;7.00;5.68;;;20.00;80.40;;;;;;4984058;28;20149;-82
2023/08/30 07:41:04;;;;;;;84.93;17.63;;;20.00;81.10;;;;;;4975419;28;20062;-84
2023/08/30 07:43:30;;;;;;;7.93;5.28;;;21.40;79.80;;;;;;4974757;28;20552;-83
2023/08/30 07:45:56;;;;;;;6.63;4.88;;;22.50;74.10;;;;;;4956829;28;20158;-83
2023/08/30 07:48:22;;;;;;;9.03;6.13;;;22.60;72.60;;;;;;4956492;28;20093;-82
2023/08/30 07:50:48;;;;;;;9.85;6.28;;;22.10;72.80;;;;;;4976127;28;20090;-82
2023/08/30 07:53:14;;;;;;;6.82;5.47;;;22.00;73.60;;;;;;4981613;28;20043;-82
2023/08/30 07:55:40;;;;;;;7.10;5.93;;;21.70;74.20;;;;;;4978221;28;20031;-82
2023/08/30 07:58:06;;;;;;;12.93;6.30;;;21.80;74.60;;;;;;4988582;28;20018;-82
2023/08/30 08:00:31;;;;;;;10.00;5.95;;;22.30;72.60;;;;;;4957123;28;20023;-84
2023/08/30 08:02:57;;;;;;;21.35;9.65;;;22.40;72.00;;;;;;4973523;28;20034;-84
2023/08/30 08:05:23;;;;;;;6.82;5.32;;;22.50;71.80;;;;;;4973793;28;20388;-83
2023/08/30 08:07:53;;;;;;;7.20;5.15;;;22.50;70.60;;;;;;4974014;28;20030;-83
2023/08/30 08:10:19;;;;;;;7.45;5.90;;;22.50;71.20;;;;;;4974349;28;20021;-83
2023/08/30 08:12:45;;;;;;;54.30;12.17;;;22.40;70.90;;;;;;4973915;28;20050;-82
2023/08/30 08:15:11;;;;;;;6.57;5.38;;;22.80;70.90;;;;;;4973805;28;20488;-82
2023/08/30 08:17:37;;;;;;;7.18;5.20;;;23.00;69.20;;;;;;4956854;28;20019;-84
2023/08/30 08:20:05;;;;;;;7.93;5.90;;;23.10;68.70;;;;;;4974308;28;20031;-82
2023/08/30 08:22:31;;;;;;;8.48;5.32;;;24.00;68.20;;;;;;4971521;28;20119;-84
2023/08/30 08:24:58;;;;;;;8.88;6.63;;;25.70;64.50;;;;;;4973612;28;20035;-82
2023/08/30 08:27:26;;;;;;;11.73;6.53;;;26.20;61.60;;;;;;4973603;28;20058;-83
2023/08/30 08:29:52;;;;;;;8.25;6.20;;;26.40;60.80;;;;;;4973371;28;20026;-82
2023/08/30 08:32:18;;;;;;;8.25;5.53;;;27.00;59.50;;;;;;4975941;28;20053;-83
2023/08/30 08:34:44;;;;;;;8.55;6.28;;;27.30;58.00;;;;;;4973201;28;20103;-84
2023/08/30 08:37:10;;;;;;;7.50;6.57;;;27.10;57.40;;;;;;4973914;28;20030;-82
2023/08/30 08:39:36;;;;;;;10.23;6.63;;;26.30;58.40;;;;;;4956335;28;20029;-81
2023/08/30 08:42:03;;;;;;;7.25;5.57;;;26.40;58.90;;;;;;4972738;28;20427;-82
2023/08/30 08:44:32;;;;;;;6.53;5.18;;;26.80;58.70;;;;;;4957764;28;20030;-82
2023/08/30 08:47:00;;;;;;;7.50;5.18;;;27.50;57.10;;;;;;4985287;28;20023;-83
2023/08/30 08:49:28;;;;;;;5.70;5.05;;;28.60;55.20;;;;;;4973386;28;20380;-84
2023/08/30 08:51:54;;;;;;;23.38;10.52;;;29.50;52.60;;;;;;4942168;28;20019;-84
2023/08/30 08:54:20;;;;;;;9.48;5.93;;;28.40;53.30;;;;;;4973031;28;20407;-82
2023/08/30 08:56:46;;;;;;;7.25;6.55;;;27.40;55.10;;;;;;4973416;28;20031;-83
2023/08/30 08:59:12;;;;;;;6.80;5.67;;;26.80;57.20;;;;;;4955510;28;20225;-82
2023/08/30 09:01:42;;;;;;;10.70;5.85;;;27.30;56.70;;;;;;4959738;28;20407;-84
2023/08/30 09:04:09;;;;;;;7.82;5.70;;;28.50;55.20;;;;;;4977005;28;20067;-84
2023/08/30 09:06:36;;;;;;;7.63;5.60;;;29.40;52.90;;;;;;4977138;28;20039;-83
2023/08/30 09:09:08;;;;;;;6.13;5.45;;;30.00;50.90;;;;;;4976864;28;20022;-82
2023/08/30 09:11:34;;;;;;;5.07;4.53;;;30.70;51.00;;;;;;4959054;28;20023;-84
2023/08/30 09:14:00;;;;;;;9.63;5.53;;;31.20;49.70;;;;;;4991043;28;20058;-83
2023/08/30 09:16:25;;;;;;;10.70;6.07;;;30.80;48.30;;;;;;4976303;28;20097;-86
2023/08/30 09:19:01;;;;;;;7.17;5.43;;;30.10;49.50;;;;;;4980339;28;20026;-84
2023/08/30 09:21:28;;;;;;;7.57;5.10;;;30.00;50.70;;;;;;4980334;28;20029;-83
2023/08/30 09:24:02;;;;;;;36.58;8.23;;;30.50;49.80;;;;;;4963167;28;20089;-83
2023/08/30 09:26:31;;;;;;;6.18;4.75;;;;;;;;;;4977462;28;20019;-85
2023/08/30 09:29:03;;;;;;;7.35;5.60;;;;;;;;;;4984995;28;20045;-83
2023/08/30 09:31:33;;;;;;;8.50;5.82;;;31.10;49.20;;;;;;4977147;28;20477;-85
2023/08/30 09:34:01;;;;;;;7.13;4.90;;;29.30;49.60;;;;;;4976610;28;20113;-82
2023/08/30 09:36:33;;;;;;;7.60;5.93;;;28.50;51.40;;;;;;4959980;28;20027;-85
2023/08/30 09:38:58;;;;;;;10.43;6.50;;;27.90;52.30;;;;;;4977357;28;20130;-84
2023/08/30 09:41:25;;;;;;;10.50;6.78;;;27.00;53.80;;;;;;4976574;28;20575;-83
2023/08/30 09:43:51;;;;;;;7.15;5.57;;;26.50;55.10;;;;;;4977334;28;20041;-83
2023/08/30 09:46:17;;;;;;;23.70;7.40;;;26.10;56.40;;;;;;4977152;28;20030;-84
2023/08/30 09:48:43;;;;;;;9.65;7.75;;;27.10;56.00;;;;;;4961481;28;20026;-85
2023/08/30 09:51:11;;;;;;;9.25;6.20;;;28.00;53.20;;;;;;4976547;28;20027;-84
2023/08/30 09:53:43;;;;;;;7.65;5.35;;;28.10;52.40;;;;;;4977045;28;20043;-84
2023/08/30 09:56:13;;;;;;;6.25;5.25;;;27.50;52.80;;;;;;4972002;28;20047;-84
2023/08/30 09:58:41;;;;;;;5.57;4.45;;;26.20;54.60;;;;;;4976928;28;20027;-82
2023/08/30 10:01:08;;;;;;;6.15;5.55;;;25.40;57.00;;;;;;4959999;28;20384;-81
2023/08/30 10:03:35;;;;;;;11.18;5.20;;;25.30;57.60;;;;;;4976573;28;20050;-84
2023/08/30 10:06:05;;;;;;;19.35;5.72;;;25.80;57.50;;;;;;4976290;28;20027;-83
2023/08/30 10:08:33;;;;;;;5.88;5.18;;;26.20;56.70;;;;;;4976361;28;20114;-83
2023/08/30 10:11:00;;;;;;;6.82;4.97;;;26.70;55.60;;;;;;4975757;28;20407;-82
2023/08/30 10:13:27;;;;;;;6.07;4.55;;;27.40;54.60;;;;;;4975952;28;20030;-84
2023/08/30 10:16:03;;;;;;;4.88;3.85;;;28.20;53.40;;;;;;4977835;28;20495;-84
2023/08/30 10:18:31;;;;;;;4.55;3.70;;;28.70;52.30;;;;;;4976843;28;20129;-82
2023/08/30 10:20:59;;;;;;;7.05;5.20;;;28.70;51.70;;;;;;4974938;28;20026;-82
2023/08/30 10:23:26;;;;;;;10.25;5.53;;;28.10;52.20;;;;;;4976602;28;20034;-83
2023/08/30 10:25:54;;;;;;;8.98;5.18;;;27.40;53.40;;;;;;4976395;28;20031;-83
2023/08/30 10:28:23;;;;;;;8.00;5.53;;;26.70;54.60;;;;;;4976979;28;20026;-83
2023/08/30 10:30:49;;;;;;;5.68;5.05;;;26.00;56.10;;;;;;4959347;28;20090;-81
2023/08/30 10:33:16;;;;;;;5.88;4.32;;;25.20;57.00;;;;;;4982886;28;20061;-83
2023/08/30 10:35:51;;;;;;;7.88;5.75;;;24.60;58.20;;;;;;4986964;28;20031;-83
2023/08/30 10:38:27;;;;;;;7.95;5.25;;;24.20;59.20;;;;;;4985679;28;20022;-82
2023/08/30 10:40:53;;;;;;;5.13;4.47;;;23.70;60.50;;;;;;4978346;28;20027;-85
2023/08/30 10:43:30;;;;;;;8.35;5.85;;;23.40;61.60;;;;;;4977298;28;20313;-84
2023/08/30 10:46:04;;;;;;;8.25;5.25;;;23.30;62.20;;;;;;4976294;28;20037;-83
2023/08/30 10:48:38;;;;;;;7.35;5.20;;;23.20;62.60;;;;;;4956519;28;20079;-83
2023/08/30 10:51:07;;;;;;;10.85;5.03;;;23.10;62.50;;;;;;4971192;28;20022;-84
2023/08/30 10:53:33;;;;;;;6.57;5.38;;;22.90;63.00;;;;;;4976456;28;20070;-83
2023/08/30 10:56:10;;;;;;;10.00;5.68;;;22.70;63.30;;;;;;4977438;28;20384;-83
2023/08/30 10:58:43;;;;;;;6.70;5.13;;;22.40;64.10;;;;;;4979982;28;20023;-84
2023/08/30 11:01:13;;;;;;;7.05;4.78;;;22.30;64.50;;;;;;4977852;28;20099;-83
2023/08/30 11:03:41;;;;;;;7.60;5.72;;;22.30;64.70;;;;;;4977378;28;20019;-84
2023/08/30 11:06:07;;;;;;;14.93;5.47;;;22.20;64.90;;;;;;4993271;28;20332;-83
2023/08/30 11:08:35;;;;;;;10.15;5.38;;;22.30;65.20;;;;;;4984262;28;20093;-84
2023/08/30 11:11:04;;;;;;;12.18;7.95;;;22.40;65.50;;;;;;4986465;28;20027;-85
2023/08/30 11:13:30;;;;;;;12.77;6.50;;;22.40;65.60;;;;;;4975474;28;20501;-83
2023/08/30 11:16:03;;;;;;;8.48;5.78;;;22.40;65.80;;;;;;4977518;28;20092;-83
2023/08/30 11:18:39;;;;;;;8.50;6.30;;;22.30;66.20;;;;;;4984978;28;20389;-84
2023/08/30 11:21:06;;;;;;;12.95;8.05;;;22.20;66.50;;;;;;4976038;28;20075;-81
2023/08/30 11:23:32;;;;;;;31.40;9.82;;;22.00;67.50;;;;;;4957511;28;20022;-85
2023/08/30 11:25:58;;;;;;;16.13;7.17;;;21.90;67.80;;;;;;4957320;28;20053;-83
2023/08/30 11:28:25;;;;;;;12.25;7.10;;;21.80;68.10;;;;;;4975191;28;20056;-84
2023/08/30 11:30:54;;;;;;;9.53;6.00;;;21.80;68.10;;;;;;4975063;28;20026;-85
2023/08/30 11:33:21;;;;;;;10.35;6.40;;;21.60;68.50;;;;;;4976596;28;20023;-83
2023/08/30 11:35:49;;;;;;;10.20;5.87;;;21.50;68.80;;;;;;4957974;28;20221;-84
2023/08/30 11:38:15;;;;;;;10.65;7.10;;;21.40;69.30;;;;;;4957017;28;20268;-83
2023/08/30 11:40:41;;;;;;;8.93;6.75;;;21.30;69.70;;;;;;4974471;28;20384;-84
2023/08/30 11:43:08;;;;;;;8.50;6.60;;;21.20;70.00;;;;;;4957472;28;20035;-83
2023/08/30 11:45:34;;;;;;;15.27;8.00;;;21.00;70.20;;;;;;4975432;28;20030;-86
2023/08/30 11:48:01;;;;;;;9.55;7.28;;;20.90;70.60;;;;;;4977343;28;20027;-82
2023/08/30 11:50:28;;;;;;;13.65;9.32;;;20.80;70.80;;;;;;4975921;28;20492;-84
2023/08/30 11:52:54;;;;;;;13.20;7.35;;;20.80;71.20;;;;;;4974560;28;20469;-82
2023/08/30 11:55:24;;;;;;;17.92;7.53;;;20.80;71.40;;;;;;4956765;28;20206;-84
2023/08/30 11:57:53;;;;;;;57.72;16.90;;;20.80;71.80;;;;;;4975238;28;20027;-85
2023/08/30 12:00:20;;;;;;;26.08;8.02;;;20.80;72.20;;;;;;4970683;28;20444;-83
2023/08/30 12:02:48;;;;;;;11.30;6.57;;;20.90;71.80;;;;;;4958974;28;20086;-83
2023/08/30 12:05:15;;;;;;;16.60;7.28;;;20.90;72.30;;;;;;4954579;28;20022;-85
2023/08/30 12:07:41;;;;;;;12.57;6.73;;;20.90;71.90;;;;;;4973965;28;20026;-83
2023/08/30 12:10:11;;;;;;;12.05;7.68;;;20.80;72.00;;;;;;4973606;28;20473;-84
2023/08/30 12:12:37;;;;;;;14.50;6.43;;;20.80;72.40;;;;;;4974030;28;20019;-83
2023/08/30 12:15:11;;;;;;;29.85;11.13;;;20.80;72.20;;;;;;4973680;28;20035;-83
2023/08/30 12:17:37;;;;;;;15.75;8.07;;;20.80;72.20;;;;;;4974019;28;20030;-82
2023/08/30 12:20:03;;;;;;;17.30;7.47;;;20.80;71.70;;;;;;4973028;28;20485;-83
2023/08/30 12:22:39;;;;;;;8.35;6.80;;;20.80;71.80;;;;;;4970446;28;20117;-83
2023/08/30 12:25:26;;;;;;;12.13;6.88;;;20.80;72.30;;;;;;4957457;28;20086;-83
2023/08/30 12:27:52;;;;;;;11.57;7.68;;;20.80;71.50;;;;;;4973968;28;20022;-84
2023/08/30 12:30:19;;;;;;;13.00;6.93;;;20.80;71.70;;;;;;4983427;28;20023;-82
2023/08/30 12:32:45;;;;;;;15.05;6.20;;;20.70;72.20;;;;;;4959558;28;20026;-83
2023/08/30 12:35:11;;;;;;;5.57;5.00;;;20.80;72.60;;;;;;4974553;28;20391;-84
2023/08/30 12:37:37;;;;;;;12.45;5.85;;;20.80;72.00;;;;;;4972772;28;20027;-81